sensor_id;sensor_type;location;lat;lon;timestamp;pressure;altitude;pressure_sealevel;temperature;humidity
47220;BME280;32961;51.936;4.788;2023-02-18T00:01:46;102179.97;;;8.81;100.00
47220;BME280;32961;51.936;4.788;2023-02-18T00:04:14;102179.13;;;8.81;100.00
47220;BME280;32961;51.936;4.788;2023-02-18T00:06:43;102180.09;;;8.80;100.00
47220;BME280;32961;51.936;4.788;2023-02-18T00:09:11;102175.75;;;8.77;100.00
47220;BME280;32961;51.936;4.788;2023-02-18T00:11:39;102173.25;;;8.74;100.00
47220;BME280;32961;51.936;4.788;2023-02-18T00:14:10;102173.31;;;8.73;100.00
47220;BME280;32961;51.936;4.788;2023-02-18T00:16:39;102164.53;;;8.69;100.00
47220;BME280;32961;51.936;4.788;2023-02-18T00:19:10;102159.31;;;8.66;100.00
47220;BME280;32961;51.936;4.788;2023-02-18T00:21:38;102165.72;;;8.65;100.00
47220;BME280;32961;51.936;4.788;2023-02-18T00:24:08;102163.00;;;8.65;100.00
47220;BME280;32961;51.936;4.788;2023-02-18T00:26:37;102165.81;;;8.63;100.00
47220;BME280;32961;51.936;4.788;2023-02-18T00:29:05;102165.31;;;8.57;100.00
47220;BME280;32961;51.936;4.788;2023-02-18T00:31:35;102157.19;;;8.57;100.00
47220;BME280;32961;51.936;4.788;2023-02-18T00:34:04;102158.94;;;8.58;100.00
47220;BME280;32961;51.936;4.788;2023-02-18T00:36:32;102149.28;;;8.54;100.00
47220;BME280;32961;51.936;4.788;2023-02-18T00:39:04;102150.13;;;8.54;100.00
47220;BME280;32961;51.936;4.788;2023-02-18T00:41:34;102145.78;;;8.51;100.00
47220;BME280;32961;51.936;4.788;2023-02-18T00:44:03;102134.97;;;8.51;100.00
47220;BME280;32961;51.936;4.788;2023-02-18T00:46:31;102127.78;;;8.50;100.00
47220;BME280;32961;51.936;4.788;2023-02-18T00:49:00;102131.47;;;8.49;100.00
47220;BME280;32961;51.936;4.788;2023-02-18T00:51:28;102140.28;;;8.53;100.00
47220;BME280;32961;51.936;4.788;2023-02-18T00:53:56;102133.03;;;8.54;100.00
47220;BME280;32961;51.936;4.788;2023-02-18T00:56:23;102125.75;;;8.54;100.00
47220;BME280;32961;51.936;4.788;2023-02-18T00:58:53;102134.78;;;8.55;100.00
47220;BME280;32961;51.936;4.788;2023-02-18T01:01:21;102125.66;;;8.56;100.00
47220;BME280;32961;51.936;4.788;2023-02-18T01:03:49;102115.59;;;8.58;100.00
47220;BME280;32961;51.936;4.788;2023-02-18T01:06:17;102116.38;;;8.60;100.00
47220;BME280;32961;51.936;4.788;2023-02-18T01:08:45;102119.94;;;8.60;100.00
47220;BME280;32961;51.936;4.788;2023-02-18T01:11:13;102130.66;;;8.62;100.00
47220;BME280;32961;51.936;4.788;2023-02-18T01:13:41;102121.56;;;8.63;100.00
47220;BME280;32961;51.936;4.788;2023-02-18T01:16:10;102117.03;;;8.63;100.00
47220;BME280;32961;51.936;4.788;2023-02-18T01:18:39;102112.69;;;8.61;100.00
47220;BME280;32961;51.936;4.788;2023-02-18T01:21:07;102107.94;;;8.64;100.00
47220;BME280;32961;51.936;4.788;2023-02-18T01:23:36;102105.88;;;8.68;100.00
47220;BME280;32961;51.936;4.788;2023-02-18T01:26:05;102111.22;;;8.70;100.00
47220;BME280;32961;51.936;4.788;2023-02-18T01:28:33;102112.19;;;8.69;100.00
47220;BME280;32961;51.936;4.788;2023-02-18T01:31:04;102108.69;;;8.66;100.00
47220;BME280;32961;51.936;4.788;2023-02-18T01:33:35;102105.13;;;8.66;100.00
47220;BME280;32961;51.936;4.788;2023-02-18T01:36:04;102094.06;;;8.69;100.00
47220;BME280;32961;51.936;4.788;2023-02-18T01:38:32;102104.16;;;8.67;100.00
47220;BME280;32961;51.936;4.788;2023-02-18T01:41:00;102094.06;;;8.69;100.00
47220;BME280;32961;51.936;4.788;2023-02-18T01:43:28;102097.84;;;8.66;100.00
47220;BME280;32961;51.936;4.788;2023-02-18T01:46:02;102100.47;;;8.68;100.00
47220;BME280;32961;51.936;4.788;2023-02-18T01:48:30;102096.91;;;8.67;100.00
47220;BME280;32961;51.936;4.788;2023-02-18T01:51:07;102098.53;;;8.70;100.00
47220;BME280;32961;51.936;4.788;2023-02-18T01:53:42;102090.41;;;8.70;100.00
47220;BME280;32961;51.936;4.788;2023-02-18T01:56:19;102081.19;;;8.73;100.00
47220;BME280;32961;51.936;4.788;2023-02-18T01:58:48;102078.41;;;8.74;100.00
47220;BME280;32961;51.936;4.788;2023-02-18T02:01:16;102070.34;;;8.73;100.00
47220;BME280;32961;51.936;4.788;2023-02-18T02:03:44;102081.00;;;8.76;100.00
47220;BME280;32961;51.936;4.788;2023-02-18T02:06:17;102089.03;;;8.77;100.00
47220;BME280;32961;51.936;4.788;2023-02-18T02:08:46;102082.63;;;8.78;100.00
47220;BME280;32961;51.936;4.788;2023-02-18T02:11:22;102061.81;;;8.79;100.00
47220;BME280;32961;51.936;4.788;2023-02-18T02:14:06;102060.84;;;8.80;100.00
47220;BME280;32961;51.936;4.788;2023-02-18T02:16:43;102049.69;;;8.85;100.00
47220;BME280;32961;51.936;4.788;2023-02-18T02:19:28;102054.16;;;8.86;100.00
47220;BME280;32961;51.936;4.788;2023-02-18T02:22:34;102048.63;;;8.87;100.00
47220;BME280;32961;51.936;4.788;2023-02-18T02:25:19;102034.22;;;8.87;100.00
47220;BME280;32961;51.936;4.788;2023-02-18T02:28:14;102025.19;;;8.86;100.00
47220;BME280;32961;51.936;4.788;2023-02-18T02:31:06;102013.50;;;8.86;100.00
47220;BME280;32961;51.936;4.788;2023-02-18T02:33:57;102015.25;;;8.87;100.00
47220;BME280;32961;51.936;4.788;2023-02-18T02:36:35;102010.69;;;8.87;100.00
47220;BME280;32961;51.936;4.788;2023-02-18T02:39:12;102003.63;;;8.85;100.00
47220;BME280;32961;51.936;4.788;2023-02-18T02:41:45;101999.19;;;8.83;100.00
47220;BME280;32961;51.936;4.788;2023-02-18T02:44:20;102000.91;;;8.85;100.00
47220;BME280;32961;51.936;4.788;2023-02-18T02:46:51;101982.06;;;8.83;100.00
47220;BME280;32961;51.936;4.788;2023-02-18T02:49:30;101967.63;;;8.82;100.00
47220;BME280;32961;51.936;4.788;2023-02-18T02:52:05;101963.94;;;8.83;100.00
47220;BME280;32961;51.936;4.788;2023-02-18T02:54:34;101958.41;;;8.85;100.00
47220;BME280;32961;51.936;4.788;2023-02-18T02:57:08;101950.19;;;8.87;100.00
47220;BME280;32961;51.936;4.788;2023-02-18T02:59:39;101948.34;;;8.87;100.00
47220;BME280;32961;51.936;4.788;2023-02-18T03:02:17;101950.19;;;8.87;100.00
47220;BME280;32961;51.936;4.788;2023-02-18T03:04:59;101941.94;;;8.88;100.00
47220;BME280;32961;51.936;4.788;2023-02-18T03:10:38;101938.34;;;8.88;100.00
47220;BME280;32961;51.936;4.788;2023-02-18T03:13:17;101936.94;;;8.95;100.00
47220;BME280;32961;51.936;4.788;2023-02-18T03:15:54;101937.84;;;8.95;100.00
47220;BME280;32961;51.936;4.788;2023-02-18T03:18:27;101941.22;;;8.99;100.00
47220;BME280;32961;51.936;4.788;2023-02-18T03:21:03;101937.53;;;9.00;100.00
47220;BME280;32961;51.936;4.788;2023-02-18T03:23:37;101928.31;;;9.03;100.00
47220;BME280;32961;51.936;4.788;2023-02-18T03:26:07;101932.63;;;9.05;100.00
47220;BME280;32961;51.936;4.788;2023-02-18T03:28:37;101925.25;;;9.07;100.00
47220;BME280;32961;51.936;4.788;2023-02-18T03:31:08;101931.44;;;9.09;100.00
47220;BME280;32961;51.936;4.788;2023-02-18T03:33:42;101917.75;;;9.11;100.00
47220;BME280;32961;51.936;4.788;2023-02-18T03:36:12;101909.63;;;9.11;100.00
47220;BME280;32961;51.936;4.788;2023-02-18T03:38:43;101902.59;;;9.08;100.00
47220;BME280;32961;51.936;4.788;2023-02-18T03:41:12;101891.84;;;9.07;100.00
47220;BME280;32961;51.936;4.788;2023-02-18T03:43:40;101893.59;;;9.08;100.00
47220;BME280;32961;51.936;4.788;2023-02-18T03:46:15;101894.44;;;9.08;100.00
47220;BME280;32961;51.936;4.788;2023-02-18T03:48:43;101884.38;;;9.10;100.00
47220;BME280;32961;51.936;4.788;2023-02-18T03:51:11;101885.47;;;9.08;100.00
47220;BME280;32961;51.936;4.788;2023-02-18T03:53:40;101887.28;;;9.07;100.00
47220;BME280;32961;51.936;4.788;2023-02-18T03:56:08;101881.00;;;9.07;100.00
47220;BME280;32961;51.936;4.788;2023-02-18T03:58:36;101874.72;;;9.06;100.00
47220;BME280;32961;51.936;4.788;2023-02-18T04:01:05;101873.97;;;9.04;100.00
47220;BME280;32961;51.936;4.788;2023-02-18T04:03:33;101866.69;;;9.05;100.00
47220;BME280;32961;51.936;4.788;2023-02-18T04:06:01;101860.28;;;9.06;100.00
47220;BME280;32961;51.936;4.788;2023-02-18T04:08:28;101862.34;;;9.02;100.00
47220;BME280;32961;51.936;4.788;2023-02-18T04:10:58;101861.63;;;9.00;100.00
47220;BME280;32961;51.936;4.788;2023-02-18T04:13:26;101869.50;;;9.03;100.00
47220;BME280;32961;51.936;4.788;2023-02-18T04:15:54;101862.47;;;9.01;100.00
47220;BME280;32961;51.936;4.788;2023-02-18T04:18:22;101864.41;;;8.98;100.00
47220;BME280;32961;51.936;4.788;2023-02-18T04:20:50;101860.97;;;8.96;100.00
47220;BME280;32961;51.936;4.788;2023-02-18T04:23:18;101854.78;;;8.94;100.00
47220;BME280;32961;51.936;4.788;2023-02-18T04:25:46;101862.03;;;8.94;100.00
47220;BME280;32961;51.936;4.788;2023-02-18T04:28:16;101858.34;;;8.95;100.00
47220;BME280;32961;51.936;4.788;2023-02-18T04:30:45;101866.38;;;8.96;100.00
47220;BME280;32961;51.936;4.788;2023-02-18T04:33:14;101863.44;;;8.99;100.00
47220;BME280;32961;51.936;4.788;2023-02-18T04:35:41;101855.53;;;8.96;100.00
47220;BME280;32961;51.936;4.788;2023-02-18T04:38:10;101857.25;;;8.97;100.00
47220;BME280;32961;51.936;4.788;2023-02-18T04:40:38;101852.41;;;9.03;100.00
47220;BME280;32961;51.936;4.788;2023-02-18T04:43:05;101844.59;;;8.98;100.00
47220;BME280;32961;51.936;4.788;2023-02-18T04:45:34;101849.03;;;8.99;100.00
47220;BME280;32961;51.936;4.788;2023-02-18T04:48:03;101847.28;;;8.98;100.00
47220;BME280;32961;51.936;4.788;2023-02-18T04:50:31;101840.91;;;8.99;100.00
47220;BME280;32961;51.936;4.788;2023-02-18T04:52:58;101824.84;;;8.96;100.00
47220;BME280;32961;51.936;4.788;2023-02-18T04:55:26;101823.88;;;8.97;100.00
47220;BME280;32961;51.936;4.788;2023-02-18T04:57:54;101823.09;;;8.95;100.00
47220;BME280;32961;51.936;4.788;2023-02-18T05:00:22;101826.59;;;8.97;100.00
47220;BME280;32961;51.936;4.788;2023-02-18T05:02:51;101815.94;;;8.94;100.00
47220;BME280;32961;51.936;4.788;2023-02-18T05:05:19;101812.69;;;8.89;100.00
47220;BME280;32961;51.936;4.788;2023-02-18T05:07:47;101821.59;;;8.91;100.00
47220;BME280;32961;51.936;4.788;2023-02-18T05:10:16;101814.44;;;8.90;100.00
47220;BME280;32961;51.936;4.788;2023-02-18T05:12:44;101821.81;;;8.88;100.00
47220;BME280;32961;51.936;4.788;2023-02-18T05:15:11;101811.84;;;8.88;100.00
47220;BME280;32961;51.936;4.788;2023-02-18T05:17:39;101816.28;;;8.89;100.00
47220;BME280;32961;51.936;4.788;2023-02-18T05:20:10;101814.44;;;8.90;100.00
47220;BME280;32961;51.936;4.788;2023-02-18T05:22:38;101815.94;;;8.94;100.00
47220;BME280;32961;51.936;4.788;2023-02-18T05:25:06;101801.66;;;8.92;100.00
47220;BME280;32961;51.936;4.788;2023-02-18T05:27:34;101806.31;;;8.90;100.00
47220;BME280;32961;51.936;4.788;2023-02-18T05:30:02;101815.94;;;8.94;100.00
47220;BME280;32961;51.936;4.788;2023-02-18T05:32:30;101806.31;;;8.90;100.00
47220;BME280;32961;51.936;4.788;2023-02-18T05:34:58;101807.06;;;8.92;100.00
47220;BME280;32961;51.936;4.788;2023-02-18T05:37:27;101807.81;;;8.94;100.00
47220;BME280;32961;51.936;4.788;2023-02-18T05:39:55;101794.25;;;8.94;100.00
47220;BME280;32961;51.936;4.788;2023-02-18T05:42:23;101792.31;;;8.96;100.00
47220;BME280;32961;51.936;4.788;2023-02-18T05:44:51;101801.22;;;8.98;100.00
47220;BME280;32961;51.936;4.788;2023-02-18T05:47:18;101797.63;;;8.97;100.00
47220;BME280;32961;51.936;4.788;2023-02-18T05:49:46;101797.75;;;8.96;100.00
47220;BME280;32961;51.936;4.788;2023-02-18T05:52:14;101796.88;;;8.95;100.00
47220;BME280;32961;51.936;4.788;2023-02-18T05:54:43;101802.31;;;8.95;100.00
47220;BME280;32961;51.936;4.788;2023-02-18T05:57:12;101796.13;;;8.93;100.00
47220;BME280;32961;51.936;4.788;2023-02-18T05:59:40;101794.25;;;8.94;100.00
47220;BME280;32961;51.936;4.788;2023-02-18T06:02:08;101786.03;;;8.95;100.00
47220;BME280;32961;51.936;4.788;2023-02-18T06:04:36;101784.06;;;8.97;100.00
47220;BME280;32961;51.936;4.788;2023-02-18T06:07:05;101790.56;;;8.95;100.00
47220;BME280;32961;51.936;4.788;2023-02-18T06:09:33;101793.53;;;8.92;100.00
47220;BME280;32961;51.936;4.788;2023-02-18T06:12:02;101785.16;;;8.95;100.00
47220;BME280;32961;51.936;4.788;2023-02-18T06:14:30;101774.22;;;8.96;100.00
47220;BME280;32961;51.936;4.788;2023-02-18T06:16:58;101776.81;;;8.98;100.00
47220;BME280;32961;51.936;4.788;2023-02-18T06:19:26;101775.94;;;8.97;100.00
47220;BME280;32961;51.936;4.788;2023-02-18T06:21:53;101781.28;;;8.99;100.00
47220;BME280;32961;51.936;4.788;2023-02-18T06:24:22;101777.34;;;9.03;100.00
47220;BME280;32961;51.936;4.788;2023-02-18T06:26:49;101770.41;;;8.99;100.00
47220;BME280;32961;51.936;4.788;2023-02-18T06:29:18;101769.00;;;8.93;100.00
47220;BME280;32961;51.936;4.788;2023-02-18T06:31:46;101778.88;;;8.94;100.00
47220;BME280;32961;51.936;4.788;2023-02-18T06:34:15;101765.22;;;8.96;100.00
47220;BME280;32961;51.936;4.788;2023-02-18T06:36:42;101747.22;;;8.95;100.00
47220;BME280;32961;51.936;4.788;2023-02-18T06:39:10;101771.50;;;8.96;100.00
47220;BME280;32961;51.936;4.788;2023-02-18T06:41:38;101774.31;;;8.95;100.00
47220;BME280;32961;51.936;4.788;2023-02-18T06:44:06;101768.25;;;8.91;100.00
47220;BME280;32961;51.936;4.788;2023-02-18T06:46:36;101776.38;;;8.91;100.00
47220;BME280;32961;51.936;4.788;2023-02-18T06:49:04;101773.78;;;8.90;100.00
47220;BME280;32961;51.936;4.788;2023-02-18T06:51:31;101772.81;;;8.91;100.00
47220;BME280;32961;51.936;4.788;2023-02-18T06:53:59;101769.34;;;8.89;100.00
47220;BME280;32961;51.936;4.788;2023-02-18T06:56:27;101783.22;;;8.84;100.00
47220;BME280;32961;51.936;4.788;2023-02-18T06:58:56;101775.97;;;8.85;100.00
47220;BME280;32961;51.936;4.788;2023-02-18T07:01:24;101766.09;;;8.83;100.00
47220;BME280;32961;51.936;4.788;2023-02-18T07:03:53;101772.28;;;8.86;100.00
47220;BME280;32961;51.936;4.788;2023-02-18T07:06:24;101771.19;;;8.88;100.00
47220;BME280;32961;51.936;4.788;2023-02-18T07:08:52;101769.78;;;8.82;100.00
47220;BME280;32961;51.936;4.788;2023-02-18T07:11:19;101775.00;;;8.86;100.00
47220;BME280;32961;51.936;4.788;2023-02-18T07:13:50;101775.97;;;8.85;100.00
47220;BME280;32961;51.936;4.788;2023-02-18T07:16:18;101767.06;;;8.82;100.00
47220;BME280;32961;51.936;4.788;2023-02-18T07:18:46;101765.44;;;8.80;100.00
47220;BME280;32961;51.936;4.788;2023-02-18T07:21:18;101767.50;;;8.76;100.00
47220;BME280;32961;51.936;4.788;2023-02-18T07:23:46;101759.72;;;8.72;100.00
47220;BME280;32961;51.936;4.788;2023-02-18T07:26:14;101764.47;;;8.68;100.00
47220;BME280;32961;51.936;4.788;2023-02-18T07:28:42;101769.81;;;8.70;100.00
47220;BME280;32961;51.936;4.788;2023-02-18T07:31:09;101771.44;;;8.72;100.00
47220;BME280;32961;51.936;4.788;2023-02-18T07:33:37;101766.78;;;8.74;100.00
47220;BME280;32961;51.936;4.788;2023-02-18T07:36:06;101780.41;;;8.73;100.00
47220;BME280;32961;51.936;4.788;2023-02-18T07:38:36;101773.38;;;8.70;100.00
47220;BME280;32961;51.936;4.788;2023-02-18T07:41:04;101755.38;;;8.69;100.00
47220;BME280;32961;51.936;4.788;2023-02-18T07:43:32;101755.28;;;8.71;100.00
47220;BME280;32961;51.936;4.788;2023-02-18T07:46:04;101749.97;;;8.69;100.00
47220;BME280;32961;51.936;4.788;2023-02-18T07:48:33;101759.81;;;8.70;100.00
47220;BME280;32961;51.936;4.788;2023-02-18T07:51:04;101759.72;;;8.72;100.00
47220;BME280;32961;51.936;4.788;2023-02-18T07:53:32;101760.47;;;8.74;100.00
47220;BME280;32961;51.936;4.788;2023-02-18T07:56:03;101755.94;;;8.74;100.00
47220;BME280;32961;51.936;4.788;2023-02-18T07:58:33;101769.25;;;8.77;100.00
47220;BME280;32961;51.936;4.788;2023-02-18T08:01:03;101772.94;;;8.76;100.00
47220;BME280;32961;51.936;4.788;2023-02-18T08:03:31;101772.19;;;8.74;100.00
47220;BME280;32961;51.936;4.788;2023-02-18T08:06:01;101784.41;;;8.80;100.00
47220;BME280;32961;51.936;4.788;2023-02-18T08:08:30;101784.09;;;8.85;100.00
47220;BME280;32961;51.936;4.788;2023-02-18T08:11:04;101782.16;;;8.87;100.00
47220;BME280;32961;51.936;4.788;2023-02-18T08:13:44;101784.50;;;8.91;100.00
47220;BME280;32961;51.936;4.788;2023-02-18T08:16:13;101770.63;;;8.96;100.00
47220;BME280;32961;51.936;4.788;2023-02-18T08:18:40;101772.94;;;8.89;100.00
47220;BME280;32961;51.936;4.788;2023-02-18T08:21:08;101780.72;;;8.94;100.00
47220;BME280;32961;51.936;4.788;2023-02-18T08:23:36;101778.25;;;8.91;100.00
47220;BME280;32961;51.936;4.788;2023-02-18T08:26:06;101773.59;;;8.93;100.00
47220;BME280;32961;51.936;4.788;2023-02-18T08:28:34;101775.19;;;8.95;100.00
47220;BME280;32961;51.936;4.788;2023-02-18T08:31:02;101774.31;;;8.95;100.00
47220;BME280;32961;51.936;4.788;2023-02-18T08:33:31;101781.72;;;8.93;100.00
47220;BME280;32961;51.936;4.788;2023-02-18T08:35:58;101787.78;;;8.96;100.00
47220;BME280;32961;51.936;4.788;2023-02-18T08:38:27;101783.22;;;8.97;100.00
47220;BME280;32961;51.936;4.788;2023-02-18T08:41:00;101783.53;;;9.05;100.00
47220;BME280;32961;51.936;4.788;2023-02-18T08:43:30;101780.06;;;9.03;100.00
47220;BME280;32961;51.936;4.788;2023-02-18T08:45:58;101780.28;;;9.00;100.00
47220;BME280;32961;51.936;4.788;2023-02-18T08:48:27;101769.34;;;9.02;100.00
47220;BME280;32961;51.936;4.788;2023-02-18T08:50:55;101778.66;;;8.97;100.00
47220;BME280;32961;51.936;4.788;2023-02-18T08:53:24;101780.38;;;8.98;100.00
47220;BME280;32961;51.936;4.788;2023-02-18T08:55:51;101787.34;;;9.03;100.00
47220;BME280;32961;51.936;4.788;2023-02-18T08:58:19;101779.94;;;9.05;100.00
47220;BME280;32961;51.936;4.788;2023-02-18T09:00:49;101795.78;;;8.98;100.00
47220;BME280;32961;51.936;4.788;2023-02-18T09:03:16;101793.09;;;8.98;100.00
47220;BME280;32961;51.936;4.788;2023-02-18T09:05:44;101795.56;;;9.01;100.00
47220;BME280;32961;51.936;4.788;2023-02-18T09:08:12;101795.56;;;9.01;100.00
47220;BME280;32961;51.936;4.788;2023-02-18T09:10:40;101813.34;;;9.05;100.00
47220;BME280;32961;51.936;4.788;2023-02-18T09:13:10;101811.16;;;9.10;100.00
47220;BME280;32961;51.936;4.788;2023-02-18T09:15:38;101805.94;;;9.07;100.00
47220;BME280;32961;51.936;4.788;2023-02-18T09:18:10;101798.06;;;9.04;100.00
47220;BME280;32961;51.936;4.788;2023-02-18T09:20:38;101816.06;;;9.05;100.00
47220;BME280;32961;51.936;4.788;2023-02-18T09:23:06;101809.09;;;9.01;100.00
47220;BME280;32961;51.936;4.788;2023-02-18T09:25:34;101798.19;;;9.03;100.00
47220;BME280;32961;51.936;4.788;2023-02-18T09:28:02;101829.69;;;9.04;100.00
47220;BME280;32961;51.936;4.788;2023-02-18T09:30:30;101814.44;;;9.03;100.00
47220;BME280;32961;51.936;4.788;2023-02-18T09:32:57;101826.66;;;9.08;100.00
47220;BME280;32961;51.936;4.788;2023-02-18T09:35:26;101825.28;;;9.03;100.00
47220;BME280;32961;51.936;4.788;2023-02-18T09:37:54;101816.91;;;9.06;100.00
47220;BME280;32961;51.936;4.788;2023-02-18T09:40:26;101817.69;;;9.08;100.00
47220;BME280;32961;51.936;4.788;2023-02-18T09:42:55;101839.13;;;9.11;100.00
47220;BME280;32961;51.936;4.788;2023-02-18T09:45:24;101816.72;;;9.09;100.00
47220;BME280;32961;51.936;4.788;2023-02-18T09:47:52;101829.91;;;9.13;100.00
47220;BME280;32961;51.936;4.788;2023-02-18T09:50:22;101819.19;;;9.12;100.00
47220;BME280;32961;51.936;4.788;2023-02-18T09:52:51;101821.69;;;9.15;100.00
47220;BME280;32961;51.936;4.788;2023-02-18T09:55:22;101834.78;;;9.21;100.00
47220;BME280;32961;51.936;4.788;2023-02-18T09:57:53;101835.66;;;9.22;100.00
47220;BME280;32961;51.936;4.788;2023-02-18T10:00:27;101848.47;;;9.20;100.00
47220;BME280;32961;51.936;4.788;2023-02-18T10:02:57;101848.13;;;9.24;100.00
47220;BME280;32961;51.936;4.788;2023-02-18T10:05:30;101831.97;;;9.23;100.00
47220;BME280;32961;51.936;4.788;2023-02-18T10:08:04;101837.28;;;9.24;100.00
47220;BME280;32961;51.936;4.788;2023-02-18T10:10:36;101850.28;;;9.32;100.00
47220;BME280;32961;51.936;4.788;2023-02-18T10:13:10;101846.25;;;9.38;100.00
47220;BME280;32961;51.936;4.788;2023-02-18T10:15:39;101854.50;;;9.36;100.00
47220;BME280;32961;51.936;4.788;2023-02-18T10:18:19;101846.69;;;9.31;100.00
47220;BME280;32961;51.936;4.788;2023-02-18T10:20:50;101849.94;;;9.37;100.00
47220;BME280;32961;51.936;4.788;2023-02-18T10:23:20;101857.63;;;9.43;100.00
47220;BME280;32961;51.936;4.788;2023-02-18T10:25:50;101866.84;;;9.40;100.00
47220;BME280;32961;51.936;4.788;2023-02-18T10:28:21;101859.59;;;9.41;100.00
47220;BME280;32961;51.936;4.788;2023-02-18T10:30:55;101861.22;;;9.43;100.00
47220;BME280;32961;51.936;4.788;2023-02-18T10:33:32;101870.00;;;9.47;100.00
47220;BME280;32961;51.936;4.788;2023-02-18T10:36:10;101880.97;;;9.45;100.00
47220;BME280;32961;51.936;4.788;2023-02-18T10:38:57;101880.31;;;9.42;100.00
47220;BME280;32961;51.936;4.788;2023-02-18T10:41:33;101874.66;;;9.45;100.00
47220;BME280;32961;51.936;4.788;2023-02-18T10:44:14;101876.28;;;9.47;100.00
47220;BME280;32961;51.936;4.788;2023-02-18T10:47:15;101885.94;;;9.52;100.00
47220;BME280;32961;51.936;4.788;2023-02-18T10:49:56;101882.22;;;9.53;100.00
47220;BME280;32961;51.936;4.788;2023-02-18T10:52:26;101883.44;;;9.48;100.00
47220;BME280;32961;51.936;4.788;2023-02-18T10:55:01;101886.03;;;9.50;100.00
47220;BME280;32961;51.936;4.788;2023-02-18T10:57:31;101888.75;;;9.63;100.00
47220;BME280;32961;51.936;4.788;2023-02-18T11:00:01;101883.31;;;9.63;100.00
47220;BME280;32961;51.936;4.788;2023-02-18T11:02:37;101884.94;;;9.66;100.00
47220;BME280;32961;51.936;4.788;2023-02-18T11:05:17;101886.34;;;9.71;100.00
47220;BME280;32961;51.936;4.788;2023-02-18T11:07:47;101881.13;;;9.68;100.00
47220;BME280;32961;51.936;4.788;2023-02-18T11:10:22;101866.25;;;9.74;100.00
47220;BME280;32961;51.936;4.788;2023-02-18T11:12:55;101860.47;;;9.78;100.00
47220;BME280;32961;51.936;4.788;2023-02-18T11:15:25;101864.44;;;9.86;100.00
47220;BME280;32961;51.936;4.788;2023-02-18T11:17:55;101873.00;;;9.92;100.00
47220;BME280;32961;51.936;4.788;2023-02-18T11:20:31;101872.41;;;10.00;100.00
47220;BME280;32961;51.936;4.788;2023-02-18T11:23:16;101865.50;;;9.96;100.00
47220;BME280;32961;51.936;4.788;2023-02-18T11:25:59;101865.25;;;9.99;100.00
47220;BME280;32961;51.936;4.788;2023-02-18T11:28:33;101869.47;;;10.03;100.00
47220;BME280;32961;51.936;4.788;2023-02-18T11:31:06;101859.25;;;10.07;100.00
47220;BME280;32961;51.936;4.788;2023-02-18T11:33:38;101873.56;;;10.09;100.00
47220;BME280;32961;51.936;4.788;2023-02-18T11:36:17;101875.31;;;10.10;100.00
47220;BME280;32961;51.936;4.788;2023-02-18T11:38:47;101873.00;;;10.17;100.00
47220;BME280;32961;51.936;4.788;2023-02-18T11:41:19;101868.91;;;10.11;100.00
47220;BME280;32961;51.936;4.788;2023-02-18T11:43:49;101872.03;;;10.18;100.00
47220;BME280;32961;51.936;4.788;2023-02-18T11:46:19;101869.31;;;10.18;100.00
47220;BME280;32961;51.936;4.788;2023-02-18T11:48:49;101859.06;;;10.21;100.00
47220;BME280;32961;51.936;4.788;2023-02-18T11:51:18;101864.13;;;10.26;100.00
47220;BME280;32961;51.936;4.788;2023-02-18T11:53:55;101869.56;;;10.26;100.00
47220;BME280;32961;51.936;4.788;2023-02-18T11:56:29;101863.91;;;10.29;100.00
47220;BME280;32961;51.936;4.788;2023-02-18T11:58:58;101861.72;;;10.34;100.00
47220;BME280;32961;51.936;4.788;2023-02-18T12:01:33;101860.09;;;10.32;100.00
47220;BME280;32961;51.936;4.788;2023-02-18T12:04:07;101861.25;;;10.40;100.00
47220;BME280;32961;51.936;4.788;2023-02-18T12:06:43;101857.31;;;10.44;100.00
47220;BME280;32961;51.936;4.788;2023-02-18T12:09:19;101865.13;;;10.49;100.00
47220;BME280;32961;51.936;4.788;2023-02-18T12:11:52;101863.03;;;10.53;100.00
47220;BME280;32961;51.936;4.788;2023-02-18T12:14:21;101863.78;;;10.55;100.00
47220;BME280;32961;51.936;4.788;2023-02-18T12:17:11;101855.13;;;10.50;100.00
47220;BME280;32961;51.936;4.788;2023-02-18T12:20:02;101859.56;;;10.51;100.00
47220;BME280;32961;51.936;4.788;2023-02-18T12:22:41;101846.22;;;10.48;100.00
47220;BME280;32961;51.936;4.788;2023-02-18T12:25:21;101843.16;;;10.52;100.00
47220;BME280;32961;51.936;4.788;2023-02-18T12:27:58;101847.63;;;10.65;100.00
47220;BME280;32961;51.936;4.788;2023-02-18T12:30:45;101842.47;;;10.73;100.00
47220;BME280;32961;51.936;4.788;2023-02-18T12:33:24;101843.44;;;10.83;100.00
47220;BME280;32961;51.936;4.788;2023-02-18T12:36:03;101843.81;;;10.90;100.00
47220;BME280;32961;51.936;4.788;2023-02-18T12:38:53;101853.75;;;11.02;99.96
47220;BME280;32961;51.936;4.788;2023-02-18T12:41:31;101856.34;;;11.04;98.90
47220;BME280;32961;51.936;4.788;2023-02-18T12:44:12;101849.03;;;11.04;99.14
47220;BME280;32961;51.936;4.788;2023-02-18T12:49:51;101855.97;;;11.08;98.22
47220;BME280;32961;51.936;4.788;2023-02-18T12:52:30;101857.66;;;10.98;98.13
47220;BME280;32961;51.936;4.788;2023-02-18T12:55:26;101846.31;;;11.04;98.37
47220;BME280;32961;51.936;4.788;2023-02-18T12:58:05;101852.38;;;10.97;97.66
47220;BME280;32961;51.936;4.788;2023-02-18T13:00:53;101858.66;;;10.97;98.18
47220;BME280;32961;51.936;4.788;2023-02-18T13:06:49;101860.53;;;11.08;97.74
47220;BME280;32961;51.936;4.788;2023-02-18T13:09:30;101862.88;;;11.01;97.49
47220;BME280;32961;51.936;4.788;2023-02-18T13:12:07;101866.09;;;11.06;97.47
47220;BME280;32961;51.936;4.788;2023-02-18T13:14:42;101863.59;;;11.03;97.50
47220;BME280;32961;51.936;4.788;2023-02-18T13:17:14;101847.56;;;11.00;97.49
47220;BME280;32961;51.936;4.788;2023-02-18T13:19:48;101855.56;;;11.02;97.88
47220;BME280;32961;51.936;4.788;2023-02-18T13:22:19;101862.50;;;11.06;98.36